map of RGN home
RGN - Airport
Location
City:  Yangon, Yangon, Myanmar (Burma)
Near (Alt.):Rangoon, Mingaladon
Name:Yangon International Airport
Old (Alt.):RAF Mingaladon
ICAO:VYYY
IATA:RGN

Details
Type:Airport (Aerodrome, Airfield)
Use:Public/Civil, Military, International (customs port of entry)
Latitude:16°54'26"N (16.907305)
Longitude:96°08'00"E (96.133222)
Datum:WGS 1984
Elevation:109 ft (33 m)
Variation:0.65°W (WMM2015 magnetic declination)
0.03° annual change
Runways:1
Longest:8104 × 200 ft (2470 × 61 m), paved

Time
Time Zone:UTC+6:30
Local Time:

Weather
METAR:VYYY 290430Z 20006KT 8000 NSC 31/21 Q1014
TAF:VYYY 282300Z 2900/2924 27006KT 8000 FEW020
BECMG 2900/2902 4000 BR
BECMG 2908/2910 6000 HZ

Related Locations
Nearby:
Farthest:PIO: 11892 mi / 19138 km
Pisco [Capitán FAP Renán Elías Olivera Airport], ICA, PE

Find:

   beyond  
but within

Other Information
Maps:
NOTAMs:
Links:
Sources:

  
flag of Myanmar (Burma)
flag of Yangon
  

Sectional Chart

Flight Planning
at skyvector.com

Satellite Image

Google Maps Satellite view

 

Copyright © 2004-2017 Karl L. Swartz. All rights reserved.
The Great Circle Mapper name and logo are trademarks of the Great Circle Mapper.
All other trademarks mentioned herein belong to their respective owners.
Please see credits for attibutions and further copyright information.

  Follow gcmap on Facebook Follow gcmap on Twitter Follow gcmap on Google+ GCmap on LinkedIn

hCard Microformat

Geo Microformat